createdAt,value
2023-03-06T00:00:56.189Z,84.02
2023-03-06T00:03:27.879Z,85.27
2023-03-06T00:05:57.692Z,85.10
2023-03-06T00:08:29.398Z,83.39
2023-03-06T00:10:58.077Z,83.31
2023-03-06T00:13:30.054Z,83.60
2023-03-06T00:16:00.566Z,83.68
2023-03-06T00:18:28.630Z,84.67
2023-03-06T00:21:00.889Z,84.92
2023-03-06T00:23:30.391Z,84.40
2023-03-06T00:25:58.274Z,84.59
2023-03-06T00:28:26.276Z,84.03
2023-03-06T00:30:54.199Z,83.75
2023-03-06T00:33:22.161Z,84.68
2023-03-06T00:35:50.092Z,85.23
2023-03-06T00:38:18.112Z,86.60
2023-03-06T00:40:47.381Z,86.31
2023-03-06T00:43:16.974Z,85.88
2023-03-06T00:45:46.290Z,86.25
2023-03-06T00:48:14.294Z,85.99
2023-03-06T00:50:42.215Z,86.73
2023-03-06T00:53:11.181Z,87.25
2023-03-06T00:55:39.079Z,87.78
2023-03-06T00:58:08.392Z,87.37
2023-03-06T01:00:36.374Z,88.07
2023-03-06T01:03:04.328Z,87.63
2023-03-06T01:05:35.473Z,88.04
2023-03-06T01:08:03.423Z,88.08
2023-03-06T01:10:31.387Z,87.37
2023-03-06T01:12:59.480Z,87.20
2023-03-06T01:15:28.811Z,87.70
2023-03-06T01:17:56.837Z,87.41
2023-03-06T01:20:26.749Z,87.57
2023-03-06T01:22:55.587Z,89.98
2023-03-06T01:25:24.270Z,90.67
2023-03-06T01:27:53.590Z,88.52
2023-03-06T01:30:22.099Z,88.10
2023-03-06T01:32:51.458Z,86.60
2023-03-06T01:35:19.760Z,87.17
2023-03-06T01:37:47.883Z,86.50
2023-03-06T01:40:15.843Z,86.99
2023-03-06T01:42:45.815Z,87.24
2023-03-06T01:45:51.897Z,87.58
2023-03-06T01:48:24.410Z,87.57
2023-03-06T01:50:54.484Z,87.79
2023-03-06T01:53:22.556Z,86.95
2023-03-06T01:55:50.669Z,87.69
2023-03-06T01:58:20.571Z,88.01
2023-03-06T02:00:48.643Z,88.30
2023-03-06T02:03:21.606Z,88.49
2023-03-06T02:05:51.010Z,88.08
2023-03-06T02:08:21.295Z,88.35
2023-03-06T02:10:59.018Z,89.06
2023-03-06T02:13:27.031Z,88.12
2023-03-06T02:15:55.077Z,88.53
2023-03-06T02:18:23.100Z,89.82
2023-03-06T02:20:55.198Z,89.35
2023-03-06T02:23:31.562Z,90.36
2023-03-06T02:26:03.137Z,90.42
2023-03-06T02:28:31.133Z,90.75
2023-03-06T02:30:59.102Z,91.16
2023-03-06T02:33:29.624Z,91.99
2023-03-06T02:36:00.345Z,92.46
2023-03-06T02:38:31.100Z,93.68
2023-03-06T02:41:02.673Z,93.50
2023-03-06T02:43:35.353Z,94.21
2023-03-06T02:46:03.741Z,95.45
2023-03-06T02:48:31.675Z,93.71
2023-03-06T02:50:59.615Z,91.75
2023-03-06T02:53:27.665Z,91.40
2023-03-06T02:55:55.610Z,92.82
2023-03-06T02:58:24.890Z,90.62
2023-03-06T03:00:52.782Z,90.80
2023-03-06T03:03:20.799Z,91.88
2023-03-06T03:05:48.704Z,91.88
2023-03-06T03:08:16.796Z,90.68
2023-03-06T03:10:44.783Z,91.31
2023-03-06T03:13:12.724Z,91.59
2023-03-06T03:15:42.348Z,90.97
2023-03-06T03:18:11.894Z,90.03
2023-03-06T03:20:43.872Z,91.45
2023-03-06T03:23:11.815Z,93.27
2023-03-06T03:25:39.785Z,94.69
2023-03-06T03:28:07.831Z,94.71
2023-03-06T03:30:35.835Z,93.86
2023-03-06T03:33:05.215Z,93.16
2023-03-06T03:35:33.234Z,92.92
2023-03-06T03:38:01.339Z,92.25
2023-03-06T03:40:29.360Z,92.20
2023-03-06T03:42:57.290Z,92.08
2023-03-06T03:45:25.741Z,91.89
2023-03-06T03:47:53.656Z,92.46
2023-03-06T03:50:23.086Z,93.13
2023-03-06T03:52:51.057Z,92.54
2023-03-06T03:55:19.101Z,92.80
2023-03-06T03:57:46.996Z,93.32
2023-03-06T04:00:16.775Z,93.95
2023-03-06T04:02:45.392Z,93.39
2023-03-06T04:05:15.026Z,94.36
2023-03-06T04:07:44.825Z,94.81
2023-03-06T04:10:13.564Z,95.52
2023-03-06T04:12:41.532Z,95.28
2023-03-06T04:15:10.247Z,95.99
2023-03-06T04:17:38.238Z,95.52
2023-03-06T04:20:07.006Z,95.56
2023-03-06T04:22:34.908Z,95.87
2023-03-06T04:25:04.347Z,95.85
2023-03-06T04:27:32.328Z,95.51
2023-03-06T04:30:00.307Z,95.20
2023-03-06T04:32:28.381Z,95.45
2023-03-06T04:34:56.483Z,95.41
2023-03-06T04:37:26.563Z,96.19
2023-03-06T04:39:54.876Z,96.44
2023-03-06T04:42:24.229Z,97.03
2023-03-06T04:44:52.202Z,97.40
2023-03-06T04:47:20.427Z,97.63
2023-03-06T04:49:48.524Z,97.90
2023-03-06T04:52:16.462Z,97.19
2023-03-06T04:54:46.084Z,96.99
2023-03-06T04:57:14.339Z,96.57
2023-03-06T04:59:43.647Z,96.68
2023-03-06T05:02:11.603Z,96.94
2023-03-06T05:04:39.540Z,97.41
2023-03-06T05:07:07.517Z,97.32
2023-03-06T05:09:37.165Z,95.70
2023-03-06T05:12:06.595Z,95.96
2023-03-06T05:14:34.817Z,96.87
2023-03-06T05:17:04.136Z,96.82
2023-03-06T05:19:32.465Z,96.14
2023-03-06T05:22:00.431Z,96.35
2023-03-06T05:24:28.507Z,97.63
2023-03-06T05:26:56.456Z,99.03
2023-03-06T05:29:24.374Z,100.00
2023-03-06T05:31:52.343Z,100.00
2023-03-06T05:34:21.711Z,100.00
2023-03-06T05:36:49.613Z,99.58
2023-03-06T05:39:17.895Z,99.81
2023-03-06T05:41:45.888Z,99.59
2023-03-06T05:44:13.836Z,99.07
2023-03-06T05:46:41.763Z,99.81
2023-03-06T05:49:09.687Z,99.63
2023-03-06T05:51:38.980Z,99.48
2023-03-06T05:54:06.927Z,98.96
2023-03-06T05:56:34.886Z,98.85
2023-03-06T05:59:02.785Z,97.71
2023-03-06T06:01:30.683Z,97.38
2023-03-06T06:03:58.620Z,96.55
2023-03-06T06:06:26.866Z,96.19
2023-03-06T06:08:56.216Z,95.24
2023-03-06T06:11:24.138Z,94.26
2023-03-06T06:13:52.318Z,91.93
2023-03-06T06:16:26.400Z,90.36
2023-03-06T06:18:54.327Z,89.54
2023-03-06T06:21:22.229Z,88.99
2023-03-06T06:23:50.148Z,87.74
2023-03-06T06:26:47.934Z,87.64
2023-03-06T06:29:15.906Z,87.19
2023-03-06T06:31:43.905Z,86.31
2023-03-06T06:34:15.235Z,85.75
2023-03-06T06:36:43.450Z,85.55
2023-03-06T06:39:14.791Z,85.51
2023-03-06T06:41:57.250Z,85.24
2023-03-06T06:44:29.030Z,85.10
2023-03-06T06:47:21.859Z,84.25
2023-03-06T06:49:46.547Z,84.02
2023-03-06T06:52:14.481Z,84.21
2023-03-06T06:54:42.368Z,84.27
2023-03-06T06:57:11.711Z,83.97
2023-03-06T06:59:41.066Z,82.93
2023-03-06T07:02:09.206Z,83.80
2023-03-06T07:04:37.102Z,83.74
2023-03-06T07:07:05.008Z,83.63
2023-03-06T07:09:32.964Z,83.03
2023-03-06T07:12:01.122Z,83.92
2023-03-06T07:14:29.016Z,83.87
2023-03-06T07:16:58.567Z,84.14
2023-03-06T07:19:27.237Z,84.32
2023-03-06T07:21:55.273Z,84.68
2023-03-06T07:24:23.159Z,82.76
2023-03-06T07:26:51.060Z,83.96
2023-03-06T07:29:19.513Z,82.49
2023-03-06T07:31:47.450Z,82.25
2023-03-06T07:34:16.884Z,82.37
2023-03-06T07:36:44.823Z,82.85
2023-03-06T07:39:12.724Z,83.49
2023-03-06T07:41:40.672Z,84.15
2023-03-06T07:44:08.555Z,83.06
2023-03-06T07:46:36.926Z,82.77
2023-03-06T07:49:04.883Z,83.42
2023-03-06T07:51:34.241Z,83.40
2023-03-06T07:54:02.152Z,82.42
2023-03-06T07:56:30.092Z,82.64
2023-03-06T07:58:58.086Z,82.74
2023-03-06T08:01:26.091Z,82.15
2023-03-06T08:03:54.679Z,81.92
2023-03-06T08:06:24.728Z,82.50
2023-03-06T08:08:56.617Z,83.03
2023-03-06T08:11:26.330Z,83.11
2023-03-06T08:13:55.015Z,81.95
2023-03-06T08:16:24.908Z,82.30
2023-03-06T08:18:53.004Z,82.18
2023-03-06T08:21:24.712Z,81.39
2023-03-06T08:23:54.470Z,82.62
2023-03-06T08:26:23.896Z,82.03
2023-03-06T08:28:52.931Z,82.93
2023-03-06T08:31:26.808Z,82.72
2023-03-06T08:33:54.956Z,82.28
2023-03-06T08:36:24.020Z,81.62
2023-03-06T08:38:54.035Z,81.60
2023-03-06T08:41:22.508Z,81.25
2023-03-06T08:43:50.946Z,81.34
2023-03-06T08:46:19.881Z,80.09
2023-03-06T08:48:48.457Z,80.10
2023-03-06T08:51:17.339Z,80.25
2023-03-06T08:53:45.967Z,79.13
2023-03-06T08:56:20.075Z,77.92
2023-03-06T08:58:48.452Z,77.65
2023-03-06T09:01:18.480Z,77.51
2023-03-06T09:03:46.800Z,75.34
2023-03-06T09:06:15.166Z,75.90
2023-03-06T09:08:44.627Z,74.91
2023-03-06T09:11:13.583Z,74.30
2023-03-06T09:13:43.478Z,73.65
2023-03-06T09:16:12.693Z,73.63
2023-03-06T09:18:40.702Z,72.00
2023-03-06T09:21:09.197Z,72.51
2023-03-06T09:23:39.561Z,71.64
2023-03-06T09:26:08.338Z,69.91
2023-03-06T09:28:39.102Z,67.70
2023-03-06T09:31:10.845Z,68.75
2023-03-06T09:33:39.406Z,70.11
2023-03-06T09:36:09.306Z,70.15
2023-03-06T09:38:37.318Z,68.42
2023-03-06T09:43:39.354Z,67.21
2023-03-06T09:46:20.534Z,69.17
2023-03-06T09:49:01.608Z,68.64
2023-03-06T09:51:39.271Z,69.33
2023-03-06T09:54:13.696Z,69.04
2023-03-06T09:56:47.311Z,68.93
2023-03-06T09:59:21.146Z,68.37
2023-03-06T10:01:59.946Z,68.85
2023-03-06T10:04:40.262Z,68.47
2023-03-06T10:07:15.907Z,69.96
2023-03-06T10:09:49.438Z,68.99
2023-03-06T10:12:26.107Z,69.39
2023-03-06T10:15:08.102Z,70.36
2023-03-06T10:17:43.178Z,70.48
2023-03-06T10:20:20.229Z,71.09
2023-03-06T10:23:11.194Z,70.86
2023-03-06T10:25:49.388Z,70.06
2023-03-06T10:28:22.210Z,70.61
2023-03-06T10:30:58.080Z,71.46
2023-03-06T10:33:38.853Z,70.83
2023-03-06T10:36:07.506Z,71.44
2023-03-06T10:38:37.834Z,68.88
2023-03-06T10:41:09.770Z,69.95
2023-03-06T10:43:39.964Z,68.50
2023-03-06T10:46:09.111Z,68.52
2023-03-06T10:48:42.008Z,67.62
2023-03-06T10:51:19.185Z,67.94
2023-03-06T10:53:52.930Z,67.31
2023-03-06T10:56:33.079Z,65.04
2023-03-06T10:59:09.533Z,66.19
2023-03-06T11:01:37.633Z,64.78
2023-03-06T11:04:27.624Z,63.67
2023-03-06T11:07:14.177Z,63.58
2023-03-06T11:09:43.754Z,63.96
2023-03-06T11:12:26.517Z,62.92
2023-03-06T11:15:18.369Z,62.07
2023-03-06T11:17:52.961Z,63.13
2023-03-06T11:20:25.023Z,62.26
2023-03-06T11:22:56.936Z,62.41
2023-03-06T11:25:29.260Z,64.70
2023-03-06T11:28:01.532Z,64.13
2023-03-06T11:30:36.016Z,63.26
2023-03-06T11:33:12.620Z,61.74
2023-03-06T11:35:50.736Z,58.89
2023-03-06T11:38:23.551Z,59.70
2023-03-06T11:40:55.069Z,61.87
2023-03-06T11:43:29.202Z,61.26
2023-03-06T11:46:02.793Z,62.58
2023-03-06T11:48:36.534Z,60.61
2023-03-06T11:51:12.668Z,60.31
2023-03-06T11:53:41.862Z,60.35
2023-03-06T11:56:29.962Z,58.79
2023-03-06T11:59:22.246Z,57.37
2023-03-06T12:02:01.266Z,58.65
2023-03-06T12:04:49.611Z,59.42
2023-03-06T12:07:26.558Z,60.08
2023-03-06T12:09:58.727Z,59.10
2023-03-06T12:12:54.450Z,59.40
2023-03-06T12:15:43.860Z,58.10
2023-03-06T12:18:32.388Z,57.37
2023-03-06T12:21:08.271Z,60.48
2023-03-06T12:24:00.166Z,59.70
2023-03-06T12:26:55.068Z,58.56
2023-03-06T12:29:41.584Z,58.99
2023-03-06T12:32:17.778Z,58.05
2023-03-06T12:35:08.852Z,57.91
2023-03-06T12:37:49.455Z,56.60
2023-03-06T12:40:43.914Z,56.09
2023-03-06T12:43:22.241Z,55.78
2023-03-06T12:45:52.388Z,55.60
2023-03-06T12:48:23.728Z,55.95
2023-03-06T12:50:52.324Z,56.19
2023-03-06T12:53:28.106Z,56.65
2023-03-06T12:55:59.409Z,54.92
2023-03-06T12:58:47.590Z,55.74
2023-03-06T13:01:24.116Z,57.39
2023-03-06T13:04:06.644Z,56.62
2023-03-06T13:06:51.342Z,57.37
2023-03-06T13:09:26.594Z,56.72
2023-03-06T13:12:11.044Z,57.61
2023-03-06T13:14:55.211Z,57.11
2023-03-06T13:17:27.338Z,56.82
2023-03-06T13:20:35.174Z,57.02
2023-03-06T13:23:42.713Z,56.99
2023-03-06T13:26:12.993Z,57.37
2023-03-06T13:28:46.511Z,57.10
2023-03-06T13:31:26.486Z,57.16
2023-03-06T13:33:58.814Z,56.37
2023-03-06T14:05:46.219Z,56.34
2023-03-06T14:08:17.542Z,57.76
2023-03-06T14:10:47.834Z,57.89
2023-03-06T14:13:18.472Z,58.10
2023-03-06T14:15:48.487Z,57.64
2023-03-06T14:18:25.035Z,57.45
2023-03-06T14:20:58.311Z,56.53
2023-03-06T14:23:30.165Z,54.12
2023-03-06T14:26:15.199Z,53.27
2023-03-06T14:28:44.912Z,54.57
2023-03-06T14:31:20.314Z,54.49
2023-03-06T14:33:52.819Z,55.03
2023-03-06T14:36:29.723Z,54.28
2023-03-06T14:39:01.104Z,53.59
2023-03-06T14:41:31.994Z,53.48
2023-03-06T14:44:10.779Z,53.57
2023-03-06T14:46:39.140Z,55.72
2023-03-06T14:49:11.926Z,53.57
2023-03-06T14:51:46.803Z,52.54
2023-03-06T14:54:20.809Z,52.85
2023-03-06T14:56:53.767Z,52.74
2023-03-06T14:59:29.379Z,52.82
2023-03-06T15:02:00.435Z,54.13
2023-03-06T15:04:33.008Z,53.32
2023-03-06T15:07:09.783Z,53.82
2023-03-06T15:09:41.947Z,53.69
2023-03-06T15:12:35.853Z,53.81
2023-03-06T15:15:27.305Z,54.42
2023-03-06T15:17:56.441Z,54.46
2023-03-06T15:20:43.084Z,55.44
2023-03-06T15:23:23.041Z,56.57
2023-03-06T15:25:58.439Z,56.30
2023-03-06T15:28:32.584Z,56.16
2023-03-06T15:31:17.611Z,56.56
2023-03-06T15:33:46.388Z,56.92
2023-03-06T15:36:27.608Z,57.48
2023-03-06T15:38:58.505Z,58.40
2023-03-06T15:41:36.845Z,59.55
2023-03-06T15:44:12.495Z,57.61
2023-03-06T15:46:40.571Z,57.47
2023-03-06T15:49:15.705Z,57.70
2023-03-06T15:51:43.751Z,58.71
2023-03-06T15:54:13.177Z,58.57
2023-03-06T15:56:43.493Z,59.11
2023-03-06T15:59:17.011Z,59.53
2023-03-06T16:01:44.966Z,58.66
2023-03-06T16:04:14.018Z,58.82
2023-03-06T16:06:42.045Z,58.38
2023-03-06T16:09:10.693Z,58.66
2023-03-06T16:11:44.328Z,58.04
2023-03-06T16:14:21.460Z,59.32
2023-03-06T16:16:49.778Z,58.87
2023-03-06T16:19:26.002Z,59.35
2023-03-06T16:21:55.317Z,59.77
2023-03-06T16:24:23.285Z,59.63
2023-03-06T16:26:54.969Z,60.94
2023-03-06T16:29:24.709Z,59.34
2023-03-06T16:31:52.942Z,60.16
2023-03-06T16:34:20.852Z,60.36
2023-03-06T16:36:49.744Z,60.51
2023-03-06T16:39:19.680Z,59.58
2023-03-06T16:41:47.610Z,59.76
2023-03-06T16:44:16.954Z,59.82
2023-03-06T16:46:47.111Z,59.86
2023-03-06T16:49:17.714Z,60.56
2023-03-06T16:51:45.822Z,60.31
2023-03-06T16:54:13.997Z,60.06
2023-03-06T16:56:42.403Z,59.77
2023-03-06T16:59:10.748Z,60.01
2023-03-06T17:01:42.700Z,59.86
2023-03-06T17:04:11.514Z,60.26
2023-03-06T17:06:40.031Z,61.03
2023-03-06T17:09:08.518Z,61.16
2023-03-06T17:11:38.706Z,61.14
2023-03-06T17:14:07.179Z,60.78
2023-03-06T17:16:37.063Z,61.25
2023-03-06T17:22:04.878Z,61.79
2023-03-06T17:24:32.930Z,61.82
2023-03-06T17:27:00.950Z,62.37
2023-03-06T17:29:28.963Z,62.34
2023-03-06T17:31:56.932Z,62.88
2023-03-06T17:34:26.284Z,63.91
2023-03-06T17:36:54.212Z,62.55
2023-03-06T17:39:22.178Z,63.04
2023-03-06T17:41:50.238Z,63.74
2023-03-06T17:44:19.775Z,62.56
2023-03-06T17:46:47.756Z,63.87
2023-03-06T17:49:16.465Z,63.06
2023-03-06T17:51:45.861Z,63.47
2023-03-06T17:54:13.733Z,63.41
2023-03-06T17:56:41.610Z,63.97
2023-03-06T17:59:09.656Z,63.69
2023-03-06T18:01:37.858Z,63.86
2023-03-06T18:04:06.212Z,63.95
2023-03-06T18:06:34.903Z,64.35
2023-03-06T18:09:05.295Z,64.99
2023-03-06T18:11:33.735Z,64.19
2023-03-06T18:14:03.206Z,64.77
2023-03-06T18:16:32.460Z,64.25
2023-03-06T18:19:00.489Z,65.09
2023-03-06T18:21:28.447Z,64.59
2023-03-06T18:23:58.800Z,64.72
2023-03-06T18:26:29.525Z,65.21
2023-03-06T18:28:59.117Z,64.91
2023-03-06T18:31:29.510Z,64.68
2023-03-06T18:33:59.646Z,64.35
2023-03-06T18:36:29.648Z,65.34
2023-03-06T18:38:58.459Z,64.85
2023-03-06T18:41:27.989Z,65.38
2023-03-06T18:43:57.722Z,64.88
2023-03-06T18:46:27.413Z,65.71
2023-03-06T18:48:56.508Z,66.41
2023-03-06T18:51:24.702Z,65.60
2023-03-06T18:53:52.697Z,66.00
2023-03-06T18:59:23.914Z,65.60
2023-03-06T19:01:57.941Z,65.47
2023-03-06T19:04:25.855Z,65.90
2023-03-06T19:06:54.649Z,65.96
2023-03-06T19:09:23.000Z,65.72
2023-03-06T19:11:54.723Z,66.77
2023-03-06T19:14:22.821Z,66.97
2023-03-06T19:16:51.017Z,66.73
2023-03-06T19:19:26.532Z,66.97
2023-03-06T19:21:54.991Z,66.87
2023-03-06T19:24:22.881Z,66.88
2023-03-06T19:26:52.352Z,67.40
2023-03-06T19:29:20.293Z,66.76
2023-03-06T19:31:49.009Z,66.61
2023-03-06T19:34:16.881Z,67.15
2023-03-06T19:36:44.752Z,67.24
2023-03-06T19:39:13.053Z,66.74
2023-03-06T19:41:40.918Z,67.20
2023-03-06T19:44:12.321Z,67.43
2023-03-06T19:46:40.801Z,68.23
2023-03-06T19:49:12.203Z,68.21
2023-03-06T19:51:40.137Z,68.94
2023-03-06T19:54:08.061Z,68.43
2023-03-06T19:56:35.942Z,68.54
2023-03-06T19:59:03.878Z,69.30
2023-03-06T20:01:34.329Z,69.33
2023-03-06T20:04:03.371Z,68.29
2023-03-06T20:06:34.309Z,68.71
2023-03-06T20:09:03.224Z,68.92
2023-03-06T20:11:31.986Z,69.20
2023-03-06T20:14:01.370Z,69.15
2023-03-06T20:16:30.481Z,69.07
2023-03-06T20:19:00.751Z,69.60
2023-03-06T20:21:30.029Z,69.08
2023-03-06T20:23:58.831Z,69.81
2023-03-06T20:26:27.793Z,69.55
2023-03-06T20:28:56.112Z,69.75
2023-03-06T20:31:25.816Z,69.56
2023-03-06T20:33:55.205Z,69.60
2023-03-06T20:36:27.293Z,69.40
2023-03-06T20:38:55.530Z,69.98
2023-03-06T20:41:26.048Z,70.00
2023-03-06T20:43:54.650Z,69.79
2023-03-06T20:46:23.990Z,70.31
2023-03-06T20:48:53.142Z,69.44
2023-03-06T20:51:22.292Z,69.86
2023-03-06T20:53:53.540Z,69.85
2023-03-06T20:56:23.740Z,70.32
2023-03-06T20:58:51.802Z,70.28
2023-03-06T21:01:21.191Z,71.27
2023-03-06T21:03:49.275Z,71.51
2023-03-06T21:06:17.629Z,71.62
2023-03-06T21:08:45.662Z,71.13
2023-03-06T21:11:14.937Z,71.58
2023-03-06T21:13:43.125Z,71.33
2023-03-06T21:16:12.913Z,71.32
2023-03-06T21:18:41.047Z,71.85
2023-03-06T21:21:10.171Z,71.82
2023-03-06T21:23:38.584Z,71.46
2023-03-06T21:26:07.119Z,71.68
2023-03-06T21:28:36.412Z,71.88
2023-03-06T21:31:07.770Z,71.74
2023-03-06T21:33:35.763Z,71.59
2023-03-06T21:36:04.449Z,71.60
2023-03-06T21:38:32.451Z,71.28
2023-03-06T21:41:07.963Z,71.45
2023-03-06T21:43:37.208Z,72.09
2023-03-06T21:46:05.326Z,72.41
2023-03-06T21:48:33.345Z,71.96
2023-03-06T21:51:12.118Z,72.07
2023-03-06T21:53:42.700Z,72.25
2023-03-06T21:56:11.514Z,72.27
2023-03-06T21:58:41.034Z,71.73
2023-03-06T22:01:13.175Z,72.41
2023-03-06T22:03:41.420Z,72.14
2023-03-06T22:06:11.309Z,72.44
2023-03-06T22:08:39.583Z,72.83
2023-03-06T22:11:08.760Z,72.32
2023-03-06T22:13:36.868Z,72.24
2023-03-06T22:16:07.195Z,73.08
2023-03-06T22:18:36.101Z,72.01
2023-03-06T22:21:08.313Z,72.52
2023-03-06T22:23:36.217Z,72.14
2023-03-06T22:26:05.154Z,72.11
2023-03-06T22:28:33.515Z,72.26
2023-03-06T22:31:07.356Z,72.46
2023-03-06T22:33:35.133Z,72.57
2023-03-06T22:36:06.277Z,73.72
2023-03-06T22:38:34.747Z,72.98
2023-03-06T22:41:02.761Z,72.78
2023-03-06T22:43:30.863Z,72.35
2023-03-06T22:46:01.987Z,72.88
2023-03-06T22:48:31.401Z,73.37
2023-03-06T22:51:03.614Z,73.60
2023-03-06T22:53:32.932Z,72.41
2023-03-06T22:56:01.723Z,73.54
2023-03-06T22:58:34.374Z,73.09
2023-03-06T23:01:06.472Z,73.38
2023-03-06T23:03:36.247Z,73.66
2023-03-06T23:06:07.192Z,73.01
2023-03-06T23:08:35.110Z,72.96
2023-03-06T23:11:03.396Z,73.45
2023-03-06T23:13:31.302Z,73.14
2023-03-06T23:16:03.642Z,73.22
2023-03-06T23:18:31.695Z,73.71
2023-03-06T23:21:01.042Z,74.00
2023-03-06T23:23:28.947Z,73.98
2023-03-06T23:26:00.250Z,74.43
2023-03-06T23:28:28.872Z,73.89
2023-03-06T23:30:56.822Z,74.80
2023-03-06T23:33:24.801Z,75.18
2023-03-06T23:35:52.788Z,73.99
2023-03-06T23:38:22.051Z,74.41
2023-03-06T23:40:50.148Z,74.46
2023-03-06T23:43:18.040Z,74.71
2023-03-06T23:45:54.944Z,75.06
2023-03-06T23:48:22.877Z,75.13
2023-03-06T23:50:51.254Z,75.61
2023-03-06T23:53:19.174Z,75.66
2023-03-06T23:55:50.246Z,75.55
2023-03-06T23:58:19.994Z,75.19
